sensor_id;sensor_type;location;lat;lon;timestamp;pressure;altitude;pressure_sealevel;temperature;humidity
35848;BME280;22332;51.954;20.118;2024-03-23T00:56:28;99359.54;;;10.38;84.42
35848;BME280;22332;51.954;20.118;2024-03-23T00:59:33;99357.72;;;10.37;84.67
35848;BME280;22332;51.954;20.118;2024-03-23T01:02:38;99353.70;;;10.32;84.75
35848;BME280;22332;51.954;20.118;2024-03-23T01:05:43;99344.80;;;10.30;84.93
35848;BME280;22332;51.954;20.118;2024-03-23T01:08:48;99344.04;;;10.31;85.04
35848;BME280;22332;51.954;20.118;2024-03-23T01:11:54;99346.86;;;10.26;85.30
35848;BME280;22332;51.954;20.118;2024-03-23T01:14:59;99341.33;;;10.28;85.43
35848;BME280;22332;51.954;20.118;2024-03-23T01:18:05;99339.00;;;10.30;85.44
35848;BME280;22332;51.954;20.118;2024-03-23T01:21:10;99339.86;;;10.28;85.67
35848;BME280;22332;51.954;20.118;2024-03-23T01:24:15;99335.30;;;10.28;85.70
35848;BME280;22332;51.954;20.118;2024-03-23T01:27:20;99333.02;;;10.29;85.73
35848;BME280;22332;51.954;20.118;2024-03-23T01:30:25;99331.61;;;10.31;85.88
35848;BME280;22332;51.954;20.118;2024-03-23T01:33:31;99329.64;;;10.34;86.00
35848;BME280;22332;51.954;20.118;2024-03-23T01:36:36;99328.55;;;10.36;86.08
35848;BME280;22332;51.954;20.118;2024-03-23T01:39:41;99327.20;;;10.33;86.03
35848;BME280;22332;51.954;20.118;2024-03-23T01:42:57;99320.61;;;10.32;86.16
35848;BME280;22332;51.954;20.118;2024-03-23T01:46:03;99316.20;;;10.33;86.35
35848;BME280;22332;51.954;20.118;2024-03-23T01:49:09;99311.65;;;10.36;86.33
35848;BME280;22332;51.954;20.118;2024-03-23T01:52:14;99308.21;;;10.38;86.20
35848;BME280;22332;51.954;20.118;2024-03-23T01:55:20;99307.31;;;10.38;86.27
35848;BME280;22332;51.954;20.118;2024-03-23T01:58:25;99307.30;;;10.35;86.25
35848;BME280;22332;51.954;20.118;2024-03-23T02:01:30;99313.45;;;10.31;86.46
35848;BME280;22332;51.954;20.118;2024-03-23T02:04:36;99309.11;;;10.30;86.64
35848;BME280;22332;51.954;20.118;2024-03-23T02:07:41;99302.41;;;10.31;86.44
35848;BME280;22332;51.954;20.118;2024-03-23T02:10:47;99301.74;;;10.32;86.75
35848;BME280;22332;51.954;20.118;2024-03-23T02:13:52;99296.55;;;10.33;86.70
35848;BME280;22332;51.954;20.118;2024-03-23T02:16:57;99297.02;;;10.32;86.66
35848;BME280;22332;51.954;20.118;2024-03-23T02:20:03;99283.58;;;10.31;86.84
35848;BME280;22332;51.954;20.118;2024-03-23T02:23:15;99284.68;;;10.31;86.87
35848;BME280;22332;51.954;20.118;2024-03-23T02:26:20;99287.19;;;10.31;86.83
35848;BME280;22332;51.954;20.118;2024-03-23T02:29:25;99285.08;;;10.30;86.97
35848;BME280;22332;51.954;20.118;2024-03-23T02:32:30;99284.31;;;10.31;87.11
35848;BME280;22332;51.954;20.118;2024-03-23T02:35:35;99276.30;;;10.29;87.05
35848;BME280;22332;51.954;20.118;2024-03-23T02:38:40;99271.77;;;10.27;87.13
35848;BME280;22332;51.954;20.118;2024-03-23T02:41:45;99264.77;;;10.26;87.17
35848;BME280;22332;51.954;20.118;2024-03-23T02:44:52;99266.80;;;10.27;87.39
35848;BME280;22332;51.954;20.118;2024-03-23T02:47:57;99263.28;;;10.27;87.35
35848;BME280;22332;51.954;20.118;2024-03-23T02:51:02;99265.02;;;10.27;87.36
35848;BME280;22332;51.954;20.118;2024-03-23T02:54:07;99261.48;;;10.27;87.35
35848;BME280;22332;51.954;20.118;2024-03-23T02:57:12;99264.48;;;10.25;87.38
35848;BME280;22332;51.954;20.118;2024-03-23T03:00:18;99261.23;;;10.24;87.41
35848;BME280;22332;51.954;20.118;2024-03-23T03:03:23;99255.69;;;10.24;87.56
35848;BME280;22332;51.954;20.118;2024-03-23T03:06:29;99252.23;;;10.23;87.76
35848;BME280;22332;51.954;20.118;2024-03-23T03:09:35;99249.80;;;10.25;87.63
35848;BME280;22332;51.954;20.118;2024-03-23T03:12:40;99244.17;;;10.24;87.71
35848;BME280;22332;51.954;20.118;2024-03-23T03:15:46;99245.54;;;10.23;87.68
35848;BME280;22332;51.954;20.118;2024-03-23T03:18:51;99244.70;;;10.22;87.79
35848;BME280;22332;51.954;20.118;2024-03-23T03:21:57;99248.17;;;10.21;87.98
35848;BME280;22332;51.954;20.118;2024-03-23T03:25:02;99247.90;;;10.22;87.91
35848;BME280;22332;51.954;20.118;2024-03-23T03:28:08;99244.98;;;10.21;88.20
35848;BME280;22332;51.954;20.118;2024-03-23T03:31:13;99241.02;;;10.20;87.99
35848;BME280;22332;51.954;20.118;2024-03-23T03:34:18;99244.33;;;10.19;88.26
35848;BME280;22332;51.954;20.118;2024-03-23T03:37:23;99234.60;;;10.17;88.34
35848;BME280;22332;51.954;20.118;2024-03-23T03:40:28;99230.63;;;10.15;88.39
35848;BME280;22332;51.954;20.118;2024-03-23T03:43:34;99223.74;;;10.17;88.46
35848;BME280;22332;51.954;20.118;2024-03-23T03:46:39;99214.20;;;10.20;88.51
35848;BME280;22332;51.954;20.118;2024-03-23T03:49:44;99218.09;;;10.22;88.35
35848;BME280;22332;51.954;20.118;2024-03-23T03:52:49;99214.45;;;10.22;88.43
35848;BME280;22332;51.954;20.118;2024-03-23T03:55:54;99217.57;;;10.19;88.48
35848;BME280;22332;51.954;20.118;2024-03-23T03:58:59;99212.21;;;10.17;88.74
35848;BME280;22332;51.954;20.118;2024-03-23T04:02:05;99208.26;;;10.16;88.80
35848;BME280;22332;51.954;20.118;2024-03-23T04:05:10;99206.69;;;10.17;88.81
35848;BME280;22332;51.954;20.118;2024-03-23T04:08:15;99202.10;;;10.20;88.81
35848;BME280;22332;51.954;20.118;2024-03-23T04:11:20;99203.56;;;10.20;88.93
35848;BME280;22332;51.954;20.118;2024-03-23T04:14:25;99204.98;;;10.20;88.84
35848;BME280;22332;51.954;20.118;2024-03-23T04:17:30;99197.88;;;10.20;88.86
35848;BME280;22332;51.954;20.118;2024-03-23T04:20:38;99195.84;;;10.19;88.97
35848;BME280;22332;51.954;20.118;2024-03-23T04:23:43;99194.20;;;10.18;89.12
35848;BME280;22332;51.954;20.118;2024-03-23T04:26:48;99186.47;;;10.20;89.13
35848;BME280;22332;51.954;20.118;2024-03-23T04:29:53;99182.91;;;10.23;89.04
35848;BME280;22332;51.954;20.118;2024-03-23T04:32:59;99174.23;;;10.26;89.14
35848;BME280;22332;51.954;20.118;2024-03-23T04:36:06;99172.37;;;10.24;89.15
35848;BME280;22332;51.954;20.118;2024-03-23T04:39:11;99170.64;;;10.22;89.25
35848;BME280;22332;51.954;20.118;2024-03-23T04:42:17;99175.52;;;10.22;89.26
35848;BME280;22332;51.954;20.118;2024-03-23T04:45:23;99176.75;;;10.25;89.36
35848;BME280;22332;51.954;20.118;2024-03-23T04:48:28;99170.40;;;10.27;89.43
35848;BME280;22332;51.954;20.118;2024-03-23T04:51:37;99167.69;;;10.29;89.49
35848;BME280;22332;51.954;20.118;2024-03-23T04:54:43;99161.83;;;10.29;89.56
35848;BME280;22332;51.954;20.118;2024-03-23T04:57:49;99158.36;;;10.32;89.44
35848;BME280;22332;51.954;20.118;2024-03-23T05:00:57;99150.22;;;10.30;89.44
35848;BME280;22332;51.954;20.118;2024-03-23T05:04:03;99145.73;;;10.30;89.62
35848;BME280;22332;51.954;20.118;2024-03-23T05:07:09;99143.66;;;10.31;89.61
35848;BME280;22332;51.954;20.118;2024-03-23T05:10:15;99142.97;;;10.34;89.71
35848;BME280;22332;51.954;20.118;2024-03-23T05:13:20;99139.58;;;10.34;89.78
35848;BME280;22332;51.954;20.118;2024-03-23T05:16:25;99141.21;;;10.34;89.91
35848;BME280;22332;51.954;20.118;2024-03-23T05:19:30;99138.21;;;10.34;89.88
35848;BME280;22332;51.954;20.118;2024-03-23T05:22:35;99130.09;;;10.36;89.86
35848;BME280;22332;51.954;20.118;2024-03-23T05:25:40;99126.09;;;10.40;90.04
35848;BME280;22332;51.954;20.118;2024-03-23T05:28:45;99120.70;;;10.42;90.04
35848;BME280;22332;51.954;20.118;2024-03-23T05:31:52;99115.08;;;10.43;90.23
35848;BME280;22332;51.954;20.118;2024-03-23T05:35:00;99109.80;;;10.43;90.19
35848;BME280;22332;51.954;20.118;2024-03-23T05:38:05;99109.89;;;10.40;90.21
35848;BME280;22332;51.954;20.118;2024-03-23T05:41:10;99114.47;;;10.39;90.37
35848;BME280;22332;51.954;20.118;2024-03-23T05:44:15;99117.28;;;10.41;90.50
35848;BME280;22332;51.954;20.118;2024-03-23T05:47:20;99121.33;;;10.45;90.50
35848;BME280;22332;51.954;20.118;2024-03-23T05:50:26;99120.34;;;10.47;90.34
35848;BME280;22332;51.954;20.118;2024-03-23T05:53:31;99117.54;;;10.46;90.56
35848;BME280;22332;51.954;20.118;2024-03-23T05:56:36;99111.83;;;10.48;90.59
35848;BME280;22332;51.954;20.118;2024-03-23T05:59:41;99111.80;;;10.51;90.61
35848;BME280;22332;51.954;20.118;2024-03-23T06:02:47;99101.11;;;10.58;90.57
35848;BME280;22332;51.954;20.118;2024-03-23T06:05:52;99100.01;;;10.67;90.67
35848;BME280;22332;51.954;20.118;2024-03-23T06:08:57;99099.91;;;10.74;90.45
35848;BME280;22332;51.954;20.118;2024-03-23T06:12:03;99095.36;;;10.76;90.66
35848;BME280;22332;51.954;20.118;2024-03-23T06:15:10;99087.31;;;10.79;90.62
35848;BME280;22332;51.954;20.118;2024-03-23T06:18:16;99089.15;;;10.82;90.61
35848;BME280;22332;51.954;20.118;2024-03-23T06:21:21;99089.39;;;10.84;90.83
35848;BME280;22332;51.954;20.118;2024-03-23T06:24:27;99082.34;;;10.91;90.66
35848;BME280;22332;51.954;20.118;2024-03-23T06:27:33;99079.84;;;10.98;90.35
35848;BME280;22332;51.954;20.118;2024-03-23T06:30:41;99078.95;;;11.02;90.59
35848;BME280;22332;51.954;20.118;2024-03-23T06:33:46;99078.77;;;11.04;90.42
35848;BME280;22332;51.954;20.118;2024-03-23T06:36:51;99076.93;;;11.01;90.32
35848;BME280;22332;51.954;20.118;2024-03-23T06:39:57;99070.70;;;10.96;90.35
35848;BME280;22332;51.954;20.118;2024-03-23T06:43:02;99071.60;;;10.99;90.33
35848;BME280;22332;51.954;20.118;2024-03-23T06:46:07;99066.04;;;11.04;90.35
35848;BME280;22332;51.954;20.118;2024-03-23T06:49:12;99059.59;;;11.06;90.50
35848;BME280;22332;51.954;20.118;2024-03-23T06:52:17;99052.84;;;11.09;90.14
35848;BME280;22332;51.954;20.118;2024-03-23T06:55:23;99051.77;;;11.15;90.31
35848;BME280;22332;51.954;20.118;2024-03-23T06:58:29;99052.91;;;11.24;90.62
35848;BME280;22332;51.954;20.118;2024-03-23T07:01:34;99044.47;;;11.33;90.56
35848;BME280;22332;51.954;20.118;2024-03-23T07:04:39;99038.55;;;11.40;90.26
35848;BME280;22332;51.954;20.118;2024-03-23T07:07:44;99035.70;;;11.47;90.17
35848;BME280;22332;51.954;20.118;2024-03-23T07:10:50;99030.86;;;11.55;90.16
35848;BME280;22332;51.954;20.118;2024-03-23T07:13:55;99028.30;;;11.67;90.36
35848;BME280;22332;51.954;20.118;2024-03-23T07:17:00;99025.95;;;11.82;90.30
35848;BME280;22332;51.954;20.118;2024-03-23T07:20:07;99023.01;;;11.91;90.18
35848;BME280;22332;51.954;20.118;2024-03-23T07:23:14;99024.82;;;11.98;89.88
35848;BME280;22332;51.954;20.118;2024-03-23T07:26:19;99027.95;;;12.09;89.90
35848;BME280;22332;51.954;20.118;2024-03-23T07:29:24;99026.20;;;12.17;90.35
35848;BME280;22332;51.954;20.118;2024-03-23T07:32:30;99023.23;;;12.22;89.84
35848;BME280;22332;51.954;20.118;2024-03-23T07:35:35;99022.98;;;12.27;89.62
35848;BME280;22332;51.954;20.118;2024-03-23T07:38:41;99019.56;;;12.31;89.71
35848;BME280;22332;51.954;20.118;2024-03-23T07:41:48;99013.67;;;12.35;89.54
35848;BME280;22332;51.954;20.118;2024-03-23T07:44:53;99010.73;;;12.42;89.52
35848;BME280;22332;51.954;20.118;2024-03-23T07:48:00;99009.34;;;12.47;89.49
35848;BME280;22332;51.954;20.118;2024-03-23T07:51:08;99003.88;;;12.53;89.17
35848;BME280;22332;51.954;20.118;2024-03-23T07:54:13;99001.73;;;12.61;88.92
35848;BME280;22332;51.954;20.118;2024-03-23T07:57:18;98998.66;;;12.64;88.96
35848;BME280;22332;51.954;20.118;2024-03-23T08:00:23;98988.01;;;12.68;88.65
35848;BME280;22332;51.954;20.118;2024-03-23T08:03:28;98980.39;;;12.67;88.79
35848;BME280;22332;51.954;20.118;2024-03-23T08:06:34;98969.98;;;12.66;88.81
35848;BME280;22332;51.954;20.118;2024-03-23T08:09:39;98954.49;;;12.66;89.15
35848;BME280;22332;51.954;20.118;2024-03-23T08:12:47;98946.91;;;12.67;88.68
35848;BME280;22332;51.954;20.118;2024-03-23T08:15:52;98941.65;;;12.65;88.25
35848;BME280;22332;51.954;20.118;2024-03-23T08:18:57;98938.13;;;12.71;88.45
35848;BME280;22332;51.954;20.118;2024-03-23T08:22:02;98932.25;;;12.82;88.26
35848;BME280;22332;51.954;20.118;2024-03-23T08:25:08;98932.60;;;12.98;88.73
35848;BME280;22332;51.954;20.118;2024-03-23T08:28:13;98931.52;;;13.16;88.26
35848;BME280;22332;51.954;20.118;2024-03-23T08:31:19;98926.27;;;13.33;87.93
35848;BME280;22332;51.954;20.118;2024-03-23T08:34:24;98922.33;;;13.48;87.47
35848;BME280;22332;51.954;20.118;2024-03-23T08:37:29;98911.88;;;13.61;87.27
35848;BME280;22332;51.954;20.118;2024-03-23T08:40:34;98900.27;;;13.79;87.03
35848;BME280;22332;51.954;20.118;2024-03-23T08:43:40;98896.05;;;13.99;86.54
35848;BME280;22332;51.954;20.118;2024-03-23T08:46:46;98894.48;;;14.28;86.61
35848;BME280;22332;51.954;20.118;2024-03-23T08:49:51;98895.11;;;14.56;85.78
35848;BME280;22332;51.954;20.118;2024-03-23T08:52:56;98893.09;;;14.66;84.49
35848;BME280;22332;51.954;20.118;2024-03-23T08:56:02;98890.94;;;14.69;84.04
35848;BME280;22332;51.954;20.118;2024-03-23T08:59:08;98884.46;;;14.67;84.53
35848;BME280;22332;51.954;20.118;2024-03-23T09:02:13;98877.51;;;14.59;84.14
35848;BME280;22332;51.954;20.118;2024-03-23T09:05:18;98873.01;;;14.57;84.43
35848;BME280;22332;51.954;20.118;2024-03-23T09:08:23;98865.58;;;14.61;84.48
35848;BME280;22332;51.954;20.118;2024-03-23T09:11:29;98858.94;;;14.66;83.93
35848;BME280;22332;51.954;20.118;2024-03-23T09:14:34;98848.39;;;14.67;83.54
35848;BME280;22332;51.954;20.118;2024-03-23T09:17:39;98842.65;;;14.57;83.03
35848;BME280;22332;51.954;20.118;2024-03-23T09:20:45;98829.44;;;14.41;83.08
35848;BME280;22332;51.954;20.118;2024-03-23T09:23:50;98818.55;;;14.32;83.33
35848;BME280;22332;51.954;20.118;2024-03-23T09:26:55;98808.69;;;14.31;83.14
35848;BME280;22332;51.954;20.118;2024-03-23T09:30:00;98802.95;;;14.31;82.98
35848;BME280;22332;51.954;20.118;2024-03-23T09:33:06;98793.23;;;14.32;82.70
35848;BME280;22332;51.954;20.118;2024-03-23T09:36:12;98780.38;;;14.33;82.15
35848;BME280;22332;51.954;20.118;2024-03-23T09:39:17;98769.46;;;14.34;82.02
35848;BME280;22332;51.954;20.118;2024-03-23T09:42:23;98761.29;;;14.32;81.15
35848;BME280;22332;51.954;20.118;2024-03-23T09:45:29;98754.50;;;14.28;81.45
35848;BME280;22332;51.954;20.118;2024-03-23T09:48:35;98746.77;;;14.31;81.59
35848;BME280;22332;51.954;20.118;2024-03-23T09:51:41;98741.92;;;14.34;81.30
35848;BME280;22332;51.954;20.118;2024-03-23T09:54:46;98735.42;;;14.36;80.85
35848;BME280;22332;51.954;20.118;2024-03-23T09:57:51;98737.41;;;14.37;80.89
35848;BME280;22332;51.954;20.118;2024-03-23T10:00:56;98728.27;;;14.39;80.71
35848;BME280;22332;51.954;20.118;2024-03-23T10:04:01;98716.69;;;14.41;80.39
35848;BME280;22332;51.954;20.118;2024-03-23T10:07:14;98711.85;;;14.44;80.80
35848;BME280;22332;51.954;20.118;2024-03-23T10:10:21;98701.59;;;14.50;80.09
35848;BME280;22332;51.954;20.118;2024-03-23T10:13:26;98699.85;;;14.59;79.90
35848;BME280;22332;51.954;20.118;2024-03-23T10:16:33;98696.04;;;14.68;80.10
35848;BME280;22332;51.954;20.118;2024-03-23T10:19:38;98695.92;;;14.75;79.87
35848;BME280;22332;51.954;20.118;2024-03-23T10:22:44;98688.23;;;14.82;79.85
35848;BME280;22332;51.954;20.118;2024-03-23T10:25:49;98691.71;;;14.90;79.34
35848;BME280;22332;51.954;20.118;2024-03-23T10:28:56;98685.11;;;14.96;78.96
35848;BME280;22332;51.954;20.118;2024-03-23T10:32:11;98678.51;;;14.99;78.89
35848;BME280;22332;51.954;20.118;2024-03-23T10:35:16;98675.55;;;15.02;78.79
35848;BME280;22332;51.954;20.118;2024-03-23T10:38:23;98672.81;;;15.08;78.85
35848;BME280;22332;51.954;20.118;2024-03-23T10:41:28;98669.72;;;15.14;78.80
35848;BME280;22332;51.954;20.118;2024-03-23T10:44:37;98674.41;;;15.21;78.61
35848;BME280;22332;51.954;20.118;2024-03-23T10:47:42;98670.23;;;15.25;77.98
35848;BME280;22332;51.954;20.118;2024-03-23T10:50:48;98669.84;;;15.28;77.60
35848;BME280;22332;51.954;20.118;2024-03-23T10:53:54;98667.32;;;15.32;77.95
35848;BME280;22332;51.954;20.118;2024-03-23T10:57:05;98665.98;;;15.38;76.38
35848;BME280;22332;51.954;20.118;2024-03-23T11:00:13;98655.77;;;15.38;76.41
35848;BME280;22332;51.954;20.118;2024-03-23T11:03:33;98646.07;;;15.43;76.54
35848;BME280;22332;51.954;20.118;2024-03-23T11:06:39;98636.59;;;15.57;75.81
35848;BME280;22332;51.954;20.118;2024-03-23T11:09:45;98627.69;;;15.77;75.66
35848;BME280;22332;51.954;20.118;2024-03-23T11:12:50;98626.17;;;15.92;75.28
35848;BME280;22332;51.954;20.118;2024-03-23T11:15:57;98618.36;;;16.01;74.75
35848;BME280;22332;51.954;20.118;2024-03-23T11:19:43;98604.00;;;16.12;74.79
35848;BME280;22332;51.954;20.118;2024-03-23T11:22:48;98598.05;;;16.27;74.33
35848;BME280;22332;51.954;20.118;2024-03-23T11:25:55;98597.36;;;16.50;74.04
35848;BME280;22332;51.954;20.118;2024-03-23T11:29:11;98590.66;;;16.69;72.95
35848;BME280;22332;51.954;20.118;2024-03-23T11:32:16;98579.44;;;16.76;73.33
35848;BME280;22332;51.954;20.118;2024-03-23T11:35:32;98579.14;;;16.83;73.43
35848;BME280;22332;51.954;20.118;2024-03-23T11:38:38;98574.50;;;17.12;71.90
35848;BME280;22332;51.954;20.118;2024-03-23T11:41:51;98574.52;;;17.28;72.49
35848;BME280;22332;51.954;20.118;2024-03-23T11:44:56;98565.75;;;17.37;71.90
35848;BME280;22332;51.954;20.118;2024-03-23T11:48:06;98558.64;;;17.38;71.93
35848;BME280;22332;51.954;20.118;2024-03-23T11:51:12;98552.76;;;17.38;71.87
35848;BME280;22332;51.954;20.118;2024-03-23T11:54:19;98541.42;;;17.34;71.43
35848;BME280;22332;51.954;20.118;2024-03-23T11:57:25;98533.31;;;17.31;70.85
35848;BME280;22332;51.954;20.118;2024-03-23T12:00:30;98528.81;;;17.26;69.98
35848;BME280;22332;51.954;20.118;2024-03-23T12:03:36;98524.89;;;17.27;70.41
35848;BME280;22332;51.954;20.118;2024-03-23T12:06:41;98518.77;;;17.24;70.19
35848;BME280;22332;51.954;20.118;2024-03-23T12:09:47;98513.04;;;17.08;69.86
35848;BME280;22332;51.954;20.118;2024-03-23T12:13:07;98503.94;;;16.93;69.84
35848;BME280;22332;51.954;20.118;2024-03-23T12:16:14;98499.47;;;16.81;69.88
35848;BME280;22332;51.954;20.118;2024-03-23T12:19:19;98490.83;;;16.76;70.03
35848;BME280;22332;51.954;20.118;2024-03-23T12:22:25;98487.68;;;16.75;69.74
35848;BME280;22332;51.954;20.118;2024-03-23T12:25:31;98480.20;;;16.75;69.63
35848;BME280;22332;51.954;20.118;2024-03-23T12:28:36;98471.60;;;16.71;69.36
35848;BME280;22332;51.954;20.118;2024-03-23T12:31:42;98465.50;;;16.65;69.39
35848;BME280;22332;51.954;20.118;2024-03-23T12:34:48;98456.52;;;16.56;69.27
35848;BME280;22332;51.954;20.118;2024-03-23T12:37:54;98442.51;;;16.45;69.38
35848;BME280;22332;51.954;20.118;2024-03-23T12:40:59;98447.08;;;16.40;69.69
35848;BME280;22332;51.954;20.118;2024-03-23T12:44:05;98434.97;;;16.45;69.24
35848;BME280;22332;51.954;20.118;2024-03-23T12:47:12;98419.73;;;16.61;68.96
35848;BME280;22332;51.954;20.118;2024-03-23T12:50:17;98415.75;;;16.77;68.55
35848;BME280;22332;51.954;20.118;2024-03-23T12:53:23;98421.64;;;16.81;68.22
35848;BME280;22332;51.954;20.118;2024-03-23T12:56:28;98417.23;;;16.77;67.82
35848;BME280;22332;51.954;20.118;2024-03-23T12:59:33;98409.23;;;16.66;67.75
35848;BME280;22332;51.954;20.118;2024-03-23T13:02:39;98406.55;;;16.54;67.51
35848;BME280;22332;51.954;20.118;2024-03-23T13:05:46;98392.11;;;16.42;67.71
35848;BME280;22332;51.954;20.118;2024-03-23T13:08:56;98380.60;;;16.38;68.14
35848;BME280;22332;51.954;20.118;2024-03-23T13:12:01;98376.44;;;16.32;68.04
35848;BME280;22332;51.954;20.118;2024-03-23T13:15:08;98367.16;;;16.24;68.24
35848;BME280;22332;51.954;20.118;2024-03-23T13:18:13;98361.27;;;16.13;68.05
35848;BME280;22332;51.954;20.118;2024-03-23T13:21:18;98358.02;;;16.11;69.39
35848;BME280;22332;51.954;20.118;2024-03-23T13:24:24;98350.84;;;16.06;68.05
35848;BME280;22332;51.954;20.118;2024-03-23T13:27:29;98348.82;;;15.95;68.04
35848;BME280;22332;51.954;20.118;2024-03-23T13:30:35;98345.83;;;15.82;67.45
35848;BME280;22332;51.954;20.118;2024-03-23T13:33:40;98345.59;;;15.70;67.42
35848;BME280;22332;51.954;20.118;2024-03-23T13:36:47;98348.79;;;15.59;67.59
35848;BME280;22332;51.954;20.118;2024-03-23T13:39:52;98341.16;;;15.48;67.62
35848;BME280;22332;51.954;20.118;2024-03-23T13:42:57;98330.30;;;15.40;67.57
35848;BME280;22332;51.954;20.118;2024-03-23T13:49:36;98318.20;;;15.26;68.02
35848;BME280;22332;51.954;20.118;2024-03-23T13:52:41;98306.29;;;15.24;68.01
35848;BME280;22332;51.954;20.118;2024-03-23T13:55:49;98305.79;;;15.24;68.02
35848;BME280;22332;51.954;20.118;2024-03-23T13:58:55;98296.84;;;15.23;67.98
35848;BME280;22332;51.954;20.118;2024-03-23T14:02:00;98287.67;;;15.21;67.90
35848;BME280;22332;51.954;20.118;2024-03-23T14:05:06;98284.09;;;15.18;67.96
35848;BME280;22332;51.954;20.118;2024-03-23T14:08:12;98281.29;;;15.10;67.87
35848;BME280;22332;51.954;20.118;2024-03-23T14:11:19;98276.66;;;14.99;67.81
35848;BME280;22332;51.954;20.118;2024-03-23T14:14:24;98278.29;;;14.85;67.71
35848;BME280;22332;51.954;20.118;2024-03-23T14:17:29;98304.04;;;14.72;67.88
35848;BME280;22332;51.954;20.118;2024-03-23T14:20:35;98328.58;;;14.57;68.08
35848;BME280;22332;51.954;20.118;2024-03-23T14:23:40;98350.81;;;14.33;70.12
35848;BME280;22332;51.954;20.118;2024-03-23T14:26:46;98377.13;;;13.77;75.89
35848;BME280;22332;51.954;20.118;2024-03-23T14:29:51;98375.24;;;13.04;80.30
35848;BME280;22332;51.954;20.118;2024-03-23T14:32:57;98375.69;;;12.57;81.22
35848;BME280;22332;51.954;20.118;2024-03-23T14:36:04;98390.54;;;12.33;80.77
35848;BME280;22332;51.954;20.118;2024-03-23T14:39:10;98414.66;;;12.27;78.68
35848;BME280;22332;51.954;20.118;2024-03-23T14:42:17;98449.77;;;12.29;79.51
35848;BME280;22332;51.954;20.118;2024-03-23T14:45:22;98446.14;;;12.26;78.80
35848;BME280;22332;51.954;20.118;2024-03-23T14:48:28;98432.11;;;12.27;80.85
35848;BME280;22332;51.954;20.118;2024-03-23T14:51:33;98398.94;;;12.20;81.37
35848;BME280;22332;51.954;20.118;2024-03-23T14:54:38;98370.34;;;12.21;79.31
35848;BME280;22332;51.954;20.118;2024-03-23T14:57:44;98393.59;;;12.32;79.39
35848;BME280;22332;51.954;20.118;2024-03-23T15:00:49;98397.89;;;12.43;79.25
35848;BME280;22332;51.954;20.118;2024-03-23T15:03:54;98387.41;;;12.49;79.09
35848;BME280;22332;51.954;20.118;2024-03-23T15:07:00;98380.86;;;12.52;79.37
35848;BME280;22332;51.954;20.118;2024-03-23T15:10:07;98370.44;;;12.53;79.53
35848;BME280;22332;51.954;20.118;2024-03-23T15:13:14;98356.53;;;12.53;79.64
35848;BME280;22332;51.954;20.118;2024-03-23T15:16:19;98354.27;;;12.51;79.96
35848;BME280;22332;51.954;20.118;2024-03-23T15:19:25;98359.09;;;12.52;79.85
35848;BME280;22332;51.954;20.118;2024-03-23T15:22:30;98352.73;;;12.54;79.88
35848;BME280;22332;51.954;20.118;2024-03-23T15:25:35;98348.83;;;12.54;80.11
35848;BME280;22332;51.954;20.118;2024-03-23T15:28:40;98350.27;;;12.53;79.98
35848;BME280;22332;51.954;20.118;2024-03-23T15:32:07;98354.72;;;12.51;80.12
35848;BME280;22332;51.954;20.118;2024-03-23T15:35:12;98355.27;;;12.50;80.29
35848;BME280;22332;51.954;20.118;2024-03-23T15:38:17;98340.22;;;12.47;80.65
35848;BME280;22332;51.954;20.118;2024-03-23T15:41:23;98329.69;;;12.45;80.42
35848;BME280;22332;51.954;20.118;2024-03-23T15:44:30;98341.29;;;12.44;80.66
35848;BME280;22332;51.954;20.118;2024-03-23T15:47:35;98347.88;;;12.43;80.69
35848;BME280;22332;51.954;20.118;2024-03-23T15:50:41;98353.85;;;12.43;81.12
35848;BME280;22332;51.954;20.118;2024-03-23T15:53:56;98340.88;;;12.43;81.11
35848;BME280;22332;51.954;20.118;2024-03-23T15:57:01;98350.84;;;12.46;80.90
35848;BME280;22332;51.954;20.118;2024-03-23T16:00:09;98360.21;;;12.47;80.77
35848;BME280;22332;51.954;20.118;2024-03-23T16:03:19;98370.44;;;12.44;81.14
35848;BME280;22332;51.954;20.118;2024-03-23T16:06:25;98371.35;;;12.40;81.26
35848;BME280;22332;51.954;20.118;2024-03-23T16:09:30;98361.45;;;12.35;81.65
35848;BME280;22332;51.954;20.118;2024-03-23T16:12:36;98366.05;;;12.30;81.34
35848;BME280;22332;51.954;20.118;2024-03-23T16:15:42;98362.71;;;12.29;81.65
35848;BME280;22332;51.954;20.118;2024-03-23T16:18:48;98360.36;;;12.30;81.53
35848;BME280;22332;51.954;20.118;2024-03-23T16:21:54;98360.06;;;12.34;81.79
35848;BME280;22332;51.954;20.118;2024-03-23T16:25:03;98368.36;;;12.35;82.01
35848;BME280;22332;51.954;20.118;2024-03-23T16:28:30;98364.52;;;12.30;82.01
35848;BME280;22332;51.954;20.118;2024-03-23T16:31:36;98352.05;;;12.27;82.00
35848;BME280;22332;51.954;20.118;2024-03-23T16:34:42;98351.40;;;12.27;82.43
35848;BME280;22332;51.954;20.118;2024-03-23T16:37:48;98351.77;;;12.25;82.11
35848;BME280;22332;51.954;20.118;2024-03-23T16:41:00;98345.33;;;12.23;82.34
35848;BME280;22332;51.954;20.118;2024-03-23T16:44:06;98340.27;;;12.16;82.18
35848;BME280;22332;51.954;20.118;2024-03-23T16:47:11;98344.16;;;12.09;82.05
35848;BME280;22332;51.954;20.118;2024-03-23T16:50:16;98344.20;;;11.97;82.00
35848;BME280;22332;51.954;20.118;2024-03-23T16:53:22;98340.58;;;11.81;81.31
35848;BME280;22332;51.954;20.118;2024-03-23T16:56:29;98341.54;;;11.73;81.27
35848;BME280;22332;51.954;20.118;2024-03-23T16:59:34;98347.05;;;11.70;81.41
35848;BME280;22332;51.954;20.118;2024-03-23T17:02:39;98352.45;;;11.69;81.46
35848;BME280;22332;51.954;20.118;2024-03-23T17:05:45;98367.08;;;11.66;81.16
35848;BME280;22332;51.954;20.118;2024-03-23T17:08:50;98364.77;;;11.55;80.54
35848;BME280;22332;51.954;20.118;2024-03-23T17:11:55;98378.04;;;11.44;80.47